Time,TemperatureF,DewpointF,PressureIn,WindDirection,WindDirectionDegrees,WindSpeedMPH,WindSpeedGustMPH,Humidity,HourlyPrecipIn,Conditions,Clouds,dailyrainin,SolarRadiationWatts/m^2,SoftwareType,DateUTC
2013-07-26 00:01:00,69.5,67.4,29.93,SSE,163,0.0,0.0,93,0.00,,,0.00,0,WeatherCatV1.15B25,2013-07-26 05:01:00,
2013-07-26 00:06:00,69.5,67.4,29.92,SSE,163,0.0,0.0,93,0.00,,,0.00,0,WeatherCatV1.15B25,2013-07-26 05:06:00,
2013-07-26 00:11:00,69.4,67.3,29.93,SSE,163,0.0,0.0,93,0.00,,,0.00,0,WeatherCatV1.15B25,2013-07-26 05:11:00,
2013-07-26 00:16:00,69.4,67.3,29.93,SSE,163,0.0,1.0,93,0.00,,,0.00,0,WeatherCatV1.15B25,2013-07-26 05:16:00,
2013-07-26 00:21:00,69.3,67.2,29.93,SSE,163,0.0,0.0,93,0.00,,,0.00,0,WeatherCatV1.15B25,2013-07-26 05:21:00,
2013-07-26 00:26:00,69.1,67.0,29.93,SSE,163,0.0,2.0,93,0.00,,,0.00,0,WeatherCatV1.15B25,2013-07-26 05:26:00,
2013-07-26 00:31:00,69.0,66.9,29.93,SSE,163,0.0,1.0,93,0.00,,,0.00,0,WeatherCatV1.15B25,2013-07-26 05:31:00,
2013-07-26 00:36:00,68.8,66.7,29.93,SSE,163,0.0,0.0,93,0.00,,,0.00,0,WeatherCatV1.15B25,2013-07-26 05:36:00,
2013-07-26 00:41:00,68.5,66.4,29.93,SSE,163,1.0,2.0,93,0.00,,,0.00,0,WeatherCatV1.15B25,2013-07-26 05:41:00,
2013-07-26 00:46:00,68.3,66.2,29.93,SSE,163,2.0,4.0,93,0.00,,,0.00,0,WeatherCatV1.15B25,2013-07-26 05:46:00,
2013-07-26 00:51:00,68.0,65.9,29.93,SSE,163,0.0,0.0,93,0.00,,,0.00,0,WeatherCatV1.15B25,2013-07-26 05:51:00,
2013-07-26 00:56:00,67.7,65.6,29.93,SSE,163,0.0,0.0,93,0.00,,,0.00,0,WeatherCatV1.15B25,2013-07-26 05:56:00,
2013-07-26 01:01:00,67.5,65.4,29.93,SSE,163,2.0,3.0,93,0.00,,,0.00,0,WeatherCatV1.15B25,2013-07-26 06:01:00,
2013-07-26 01:06:00,67.2,65.1,29.92,SSE,163,2.0,3.0,93,0.00,,,0.00,0,WeatherCatV1.15B25,2013-07-26 06:06:00,
2013-07-26 01:11:00,67.1,65.0,29.93,SSE,164,0.0,3.0,93,0.00,,,0.00,0,WeatherCatV1.15B25,2013-07-26 06:11:00,
2013-07-26 01:16:00,67.2,65.1,29.93,SSE,164,3.0,4.0,93,0.00,,,0.00,0,WeatherCatV1.15B25,2013-07-26 06:16:00,
2013-07-26 01:21:00,66.9,64.8,29.93,SSE,165,0.0,3.0,93,0.00,,,0.00,0,WeatherCatV1.15B25,2013-07-26 06:21:00,
2013-07-26 01:26:00,66.5,64.4,29.93,SSE,165,0.0,1.0,93,0.00,,,0.00,0,WeatherCatV1.15B25,2013-07-26 06:26:00,
2013-07-26 01:31:00,66.1,64.0,29.93,SSE,165,0.0,0.0,93,0.00,,,0.00,0,WeatherCatV1.15B25,2013-07-26 06:31:00,
2013-07-26 01:36:00,65.9,63.8,29.94,SSE,166,0.0,5.0,93,0.00,,,0.00,0,WeatherCatV1.15B25,2013-07-26 06:36:00,
2013-07-26 01:41:00,65.6,63.5,29.93,SSE,167,3.0,5.0,93,0.00,,,0.00,0,WeatherCatV1.15B25,2013-07-26 06:41:00,
2013-07-26 01:46:00,65.4,63.3,29.93,NW,319,2.0,5.0,93,0.00,,,0.00,0,WeatherCatV1.15B25,2013-07-26 06:46:00,
2013-07-26 01:51:00,65.2,63.1,29.93,NW,321,3.0,6.0,93,0.00,,,0.00,0,WeatherCatV1.15B25,2013-07-26 06:51:00,
2013-07-26 01:56:00,64.9,62.8,29.93,NW,323,2.0,6.0,93,0.00,,,0.00,0,WeatherCatV1.15B25,2013-07-26 06:56:00,
2013-07-26 02:01:00,64.7,62.3,29.93,NW,322,4.0,5.0,92,0.00,,,0.00,0,WeatherCatV1.15B25,2013-07-26 07:01:00,
2013-07-26 02:06:00,64.6,62.2,29.93,NW,323,0.0,5.0,92,0.00,,,0.00,0,WeatherCatV1.15B25,2013-07-26 07:06:00,
2013-07-26 02:11:00,64.5,62.1,29.93,NW,323,1.0,4.0,92,0.00,,,0.00,0,WeatherCatV1.15B25,2013-07-26 07:11:00,
2013-07-26 02:16:00,64.4,62.0,29.93,NW,323,3.0,5.0,92,0.00,,,0.00,0,WeatherCatV1.15B25,2013-07-26 07:16:00,
2013-07-26 02:21:00,64.2,61.8,29.93,NW,322,4.0,8.0,92,0.00,,,0.00,0,WeatherCatV1.15B25,2013-07-26 07:21:00,
2013-07-26 02:26:00,64.1,61.7,29.93,NW,324,5.0,8.0,92,0.00,,,0.00,0,WeatherCatV1.15B25,2013-07-26 07:26:00,
2013-07-26 02:31:00,64.1,61.7,29.93,NW,323,0.0,2.0,92,0.00,,,0.00,0,WeatherCatV1.15B25,2013-07-26 07:31:00,
2013-07-26 02:36:00,64.0,61.6,29.93,NW,324,1.0,1.0,92,0.00,,,0.00,0,WeatherCatV1.15B25,2013-07-26 07:36:00,
2013-07-26 02:41:00,63.8,61.4,29.93,NW,324,0.0,3.0,92,0.00,,,0.00,0,WeatherCatV1.15B25,2013-07-26 07:41:00,
2013-07-26 02:46:00,63.7,61.3,29.93,NW,323,0.0,0.0,92,0.00,,,0.00,0,WeatherCatV1.15B25,2013-07-26 07:46:00,
2013-07-26 02:51:00,63.6,61.2,29.93,NW,324,0.0,3.0,92,0.00,,,0.00,0,WeatherCatV1.15B25,2013-07-26 07:51:00,
2013-07-26 02:56:00,63.5,61.1,29.93,NW,324,0.0,4.0,92,0.00,,,0.00,0,WeatherCatV1.15B25,2013-07-26 07:56:00,
2013-07-26 03:01:00,63.5,61.1,29.93,NW,323,0.0,5.0,92,0.00,,,0.00,0,WeatherCatV1.15B25,2013-07-26 08:01:00,
2013-07-26 03:06:00,63.4,61.0,29.93,NW,324,3.0,3.0,92,0.00,,,0.00,0,WeatherCatV1.15B25,2013-07-26 08:06:00,
2013-07-26 03:11:00,63.3,60.9,29.93,NW,324,0.0,2.0,92,0.00,,,0.00,0,WeatherCatV1.15B25,2013-07-26 08:11:00,
2013-07-26 03:16:00,63.2,60.8,29.93,NW,323,2.0,2.0,92,0.00,,,0.00,0,WeatherCatV1.15B25,2013-07-26 08:16:00,
2013-07-26 03:21:00,63.2,60.8,29.93,NW,323,0.0,5.0,92,0.00,,,0.00,0,WeatherCatV1.15B25,2013-07-26 08:21:00,
2013-07-26 03:26:00,63.2,60.8,29.94,NW,324,0.0,4.0,92,0.00,,,0.00,0,WeatherCatV1.15B25,2013-07-26 08:26:00,
2013-07-26 03:31:00,63.2,61.1,29.94,NW,324,0.0,4.0,93,0.00,,,0.00,0,WeatherCatV1.15B25,2013-07-26 08:31:00,
2013-07-26 03:36:00,63.2,61.1,29.94,NW,323,2.0,3.0,93,0.00,,,0.00,0,WeatherCatV1.15B25,2013-07-26 08:36:00,
2013-07-26 03:41:00,63.2,61.1,29.94,NW,324,0.0,0.0,93,0.00,,,0.00,0,WeatherCatV1.15B25,2013-07-26 08:41:00,
2013-07-26 03:46:00,63.2,61.1,29.94,NW,324,2.0,4.0,93,0.00,,,0.00,0,WeatherCatV1.15B25,2013-07-26 08:46:00,
2013-07-26 03:51:00,63.3,61.2,29.94,NW,323,0.0,2.0,93,0.00,,,0.00,0,WeatherCatV1.15B25,2013-07-26 08:51:00,
2013-07-26 03:56:00,63.4,61.3,29.94,NW,324,0.0,2.0,93,0.00,,,0.00,0,WeatherCatV1.15B25,2013-07-26 08:56:00,
2013-07-26 04:01:00,63.6,61.5,29.94,NW,324,0.0,3.0,93,0.00,,,0.00,0,WeatherCatV1.15B25,2013-07-26 09:01:00,
2013-07-26 04:06:00,63.7,61.6,29.94,NW,324,0.0,1.0,93,0.00,,,0.00,0,WeatherCatV1.15B25,2013-07-26 09:06:00,
2013-07-26 04:11:00,63.7,61.6,29.94,NW,324,2.0,2.0,93,0.00,,,0.00,0,WeatherCatV1.15B25,2013-07-26 09:11:00,
2013-07-26 04:16:00,63.8,61.7,29.94,NW,324,4.0,5.0,93,0.00,,,0.00,0,WeatherCatV1.15B25,2013-07-26 09:16:00,
2013-07-26 04:21:00,63.9,61.8,29.94,NW,324,2.0,7.0,93,0.00,,,0.00,0,WeatherCatV1.15B25,2013-07-26 09:21:00,
2013-07-26 04:26:00,63.9,61.8,29.94,NW,323,0.0,4.0,93,0.00,,,0.01,0,WeatherCatV1.15B25,2013-07-26 09:26:00,
2013-07-26 04:31:00,63.9,61.8,29.94,NW,324,4.0,5.0,93,0.00,,,0.01,0,WeatherCatV1.15B25,2013-07-26 09:31:00,
2013-07-26 04:36:00,63.9,61.8,29.94,NW,323,2.0,5.0,93,0.00,,,0.01,0,WeatherCatV1.15B25,2013-07-26 09:36:00,
2013-07-26 04:41:00,63.9,61.8,29.94,NW,325,0.0,5.0,93,0.00,,,0.01,0,WeatherCatV1.15B25,2013-07-26 09:41:00,
2013-07-26 04:46:00,63.8,61.7,29.94,NW,325,2.0,5.0,93,0.00,,,0.01,0,WeatherCatV1.15B25,2013-07-26 09:46:00,
2013-07-26 04:51:00,63.8,61.7,29.95,NW,325,0.0,4.0,93,0.00,,,0.01,0,WeatherCatV1.15B25,2013-07-26 09:51:00,
2013-07-26 04:56:00,63.7,61.6,29.95,NW,326,3.0,7.0,93,0.00,,,0.01,0,WeatherCatV1.15B25,2013-07-26 09:56:00,
2013-07-26 05:01:00,63.6,61.5,29.95,NNW,327,0.0,4.0,93,0.00,,,0.01,0,WeatherCatV1.15B25,2013-07-26 10:01:00,
2013-07-26 05:06:00,63.6,61.5,29.95,NNW,327,2.0,6.0,93,0.00,,,0.01,0,WeatherCatV1.15B25,2013-07-26 10:06:00,
2013-07-26 05:11:00,63.5,61.4,29.95,NNW,329,4.0,5.0,93,0.00,,,0.01,0,WeatherCatV1.15B25,2013-07-26 10:11:00,
2013-07-26 05:16:00,63.5,61.4,29.95,NNW,329,0.0,5.0,93,0.00,,,0.01,0,WeatherCatV1.15B25,2013-07-26 10:16:00,
2013-07-26 05:21:00,63.4,61.3,29.95,NNW,329,3.0,4.0,93,0.00,,,0.01,0,WeatherCatV1.15B25,2013-07-26 10:21:00,
2013-07-26 05:26:00,63.3,61.2,29.95,NNW,330,2.0,6.0,93,0.00,,,0.01,0,WeatherCatV1.15B25,2013-07-26 10:26:00,
2013-07-26 05:31:00,63.3,61.2,29.95,NNW,337,4.0,9.0,93,0.00,,,0.01,0,WeatherCatV1.15B25,2013-07-26 10:31:00,
2013-07-26 05:36:00,63.2,61.1,29.95,North,350,4.0,4.0,93,0.00,,,0.01,0,WeatherCatV1.15B25,2013-07-26 10:36:00,
2013-07-26 05:41:00,63.2,60.8,29.95,North,349,0.0,5.0,92,0.00,,,0.01,0,WeatherCatV1.15B25,2013-07-26 10:41:00,
2013-07-26 05:46:00,63.2,60.8,29.95,North,355,0.0,7.0,92,0.00,,,0.01,0,WeatherCatV1.15B25,2013-07-26 10:46:00,
2013-07-26 05:51:00,63.1,60.7,29.95,North,355,1.0,5.0,92,0.00,,,0.01,0,WeatherCatV1.15B25,2013-07-26 10:51:00,
2013-07-26 05:56:00,63.0,60.6,29.95,North,355,0.0,0.0,92,0.00,,,0.01,0,WeatherCatV1.15B25,2013-07-26 10:56:00,
2013-07-26 06:01:00,63.0,60.6,29.96,North,355,4.0,4.0,92,0.00,,,0.01,0,WeatherCatV1.15B25,2013-07-26 11:01:00,
2013-07-26 06:06:00,63.0,60.6,29.96,North,355,4.0,6.0,92,0.00,,,0.01,0,WeatherCatV1.15B25,2013-07-26 11:06:00,
2013-07-26 06:11:00,63.0,60.6,29.96,North,355,2.0,6.0,92,0.00,,,0.01,0,WeatherCatV1.15B25,2013-07-26 11:11:00,
2013-07-26 06:16:00,63.1,60.7,29.96,North,355,1.0,9.0,92,0.00,,,0.01,7,WeatherCatV1.15B25,2013-07-26 11:16:00,
2013-07-26 06:21:00,63.2,60.8,29.97,North,0,7.0,7.0,92,0.00,,,0.01,11,WeatherCatV1.15B25,2013-07-26 11:21:00,
2013-07-26 06:26:00,63.3,60.6,29.97,North,11,1.0,4.0,91,0.00,,,0.01,16,WeatherCatV1.15B25,2013-07-26 11:26:00,
2013-07-26 06:31:00,63.3,60.6,29.97,North,11,0.0,6.0,91,0.00,,,0.01,21,WeatherCatV1.15B25,2013-07-26 11:31:00,
2013-07-26 06:36:00,63.4,60.7,29.97,NNE,12,6.0,6.0,91,0.00,,,0.01,25,WeatherCatV1.15B25,2013-07-26 11:36:00,
2013-07-26 06:41:00,63.4,60.4,29.98,North,355,3.0,9.0,90,0.00,,,0.01,28,WeatherCatV1.15B25,2013-07-26 11:41:00,
2013-07-26 06:46:00,63.5,60.5,29.98,North,11,2.0,5.0,90,0.00,,,0.01,33,WeatherCatV1.15B25,2013-07-26 11:46:00,
2013-07-26 06:51:00,63.5,60.5,29.99,North,11,6.0,7.0,90,0.00,,,0.01,33,WeatherCatV1.15B25,2013-07-26 11:51:00,
2013-07-26 06:56:00,63.4,60.4,29.99,North,9,0.0,4.0,90,0.00,,,0.01,37,WeatherCatV1.15B25,2013-07-26 11:56:00,
2013-07-26 07:01:00,63.4,60.1,30.00,North,0,7.0,7.0,89,0.00,,,0.01,47,WeatherCatV1.15B25,2013-07-26 12:01:00,
2013-07-26 07:06:00,63.5,60.2,30.00,North,5,7.0,9.0,89,0.00,,,0.01,56,WeatherCatV1.15B25,2013-07-26 12:06:00,
2013-07-26 07:11:00,63.5,60.2,30.00,NNE,13,5.0,10.0,89,0.00,,,0.01,62,WeatherCatV1.15B25,2013-07-26 12:11:00,
2013-07-26 07:16:00,63.5,60.2,30.00,North,355,3.0,11.0,89,0.00,,,0.01,67,WeatherCatV1.15B25,2013-07-26 12:16:00,
2013-07-26 07:21:00,63.5,60.2,30.00,NNE,12,4.0,7.0,89,0.00,,,0.01,74,WeatherCatV1.15B25,2013-07-26 12:21:00,
2013-07-26 07:26:00,63.6,60.3,30.00,North,11,1.0,9.0,89,0.00,,,0.01,76,WeatherCatV1.15B25,2013-07-26 12:26:00,
2013-07-26 07:31:00,63.5,59.9,30.00,NE,34,9.0,10.0,88,0.00,,,0.01,93,WeatherCatV1.15B25,2013-07-26 12:31:00,
2013-07-26 07:36:00,63.5,59.9,30.00,NNW,334,7.0,10.0,88,0.00,,,0.01,111,WeatherCatV1.15B25,2013-07-26 12:36:00,
2013-07-26 07:41:00,63.6,60.0,30.00,North,351,4.0,9.0,88,0.00,,,0.01,181,WeatherCatV1.15B25,2013-07-26 12:41:00,
2013-07-26 07:46:00,63.7,60.1,30.00,NE,34,5.0,11.0,88,0.00,,,0.01,251,WeatherCatV1.15B25,2013-07-26 12:46:00,
2013-07-26 07:51:00,63.8,59.9,30.01,North,355,7.0,14.0,87,0.00,,,0.01,148,WeatherCatV1.15B25,2013-07-26 12:51:00,
2013-07-26 07:56:00,63.8,59.5,30.01,NE,37,3.0,5.0,86,0.00,,,0.01,120,WeatherCatV1.15B25,2013-07-26 12:56:00,
2013-07-26 08:01:00,63.5,59.2,30.01,NNE,25,3.0,11.0,86,0.00,,,0.01,132,WeatherCatV1.15B25,2013-07-26 13:01:00,
2013-07-26 08:06:00,63.4,59.1,30.02,NNE,32,5.0,12.0,86,0.00,,,0.01,155,WeatherCatV1.15B25,2013-07-26 13:06:00,
2013-07-26 08:11:00,63.3,58.7,30.02,NE,38,9.0,13.0,85,0.00,,,0.01,137,WeatherCatV1.15B25,2013-07-26 13:11:00,
2013-07-26 08:16:00,63.3,58.7,30.02,North,11,2.0,11.0,85,0.00,,,0.01,223,WeatherCatV1.15B25,2013-07-26 13:16:00,
2013-07-26 08:21:00,63.4,58.8,30.02,NNW,327,5.0,7.0,85,0.00,,,0.01,144,WeatherCatV1.15B25,2013-07-26 13:21:00,
2013-07-26 08:26:00,63.3,58.7,30.02,NE,36,5.0,8.0,85,0.00,,,0.01,179,WeatherCatV1.15B25,2013-07-26 13:26:00,
2013-07-26 08:31:00,63.5,58.9,30.03,NW,323,5.0,9.0,85,0.00,,,0.01,283,WeatherCatV1.15B25,2013-07-26 13:31:00,
2013-07-26 08:36:00,63.6,58.7,30.03,NNE,14,11.0,11.0,84,0.00,,,0.01,134,WeatherCatV1.15B25,2013-07-26 13:36:00,
2013-07-26 08:41:00,63.6,58.7,30.03,NE,49,5.0,12.0,84,0.00,,,0.01,452,WeatherCatV1.15B25,2013-07-26 13:41:00,
2013-07-26 08:46:00,64.1,58.8,30.04,North,5,3.0,10.0,83,0.00,,,0.01,483,WeatherCatV1.15B25,2013-07-26 13:46:00,
2013-07-26 08:51:00,64.4,58.4,30.04,NNE,17,4.0,12.0,81,0.00,,,0.01,153,WeatherCatV1.15B25,2013-07-26 13:51:00,
2013-07-26 08:56:00,64.0,57.7,30.04,NNE,14,3.0,10.0,80,0.00,,,0.01,125,WeatherCatV1.15B25,2013-07-26 13:56:00,
2013-07-26 09:01:00,64.3,58.3,30.05,NNE,31,4.0,5.0,81,0.00,,,0.01,513,WeatherCatV1.15B25,2013-07-26 14:01:00,
2013-07-26 09:06:00,64.8,58.1,30.05,North,0,11.0,11.0,79,0.00,,,0.01,526,WeatherCatV1.15B25,2013-07-26 14:06:00,
2013-07-26 09:11:00,64.9,57.9,30.05,NNE,30,5.0,9.0,78,0.00,,,0.01,450,WeatherCatV1.15B25,2013-07-26 14:11:00,
2013-07-26 09:16:00,64.6,57.6,30.05,NE,39,11.0,11.0,78,0.00,,,0.01,258,WeatherCatV1.15B25,2013-07-26 14:16:00,
2013-07-26 09:21:00,64.3,57.3,30.06,NE,51,6.0,11.0,78,0.00,,,0.01,429,WeatherCatV1.15B25,2013-07-26 14:21:00,
2013-07-26 09:26:00,64.4,57.0,30.06,NE,34,3.0,10.0,77,0.00,,,0.01,441,WeatherCatV1.15B25,2013-07-26 14:26:00,
2013-07-26 09:31:00,64.9,57.5,30.06,North,355,10.0,10.0,77,0.00,,,0.01,533,WeatherCatV1.15B25,2013-07-26 14:31:00,
2013-07-26 09:36:00,65.5,57.7,30.06,NNE,25,6.0,11.0,76,0.00,,,0.01,545,WeatherCatV1.15B25,2013-07-26 14:36:00,
2013-07-26 09:41:00,65.9,57.4,30.06,NW,323,5.0,9.0,74,0.00,,,0.01,554,WeatherCatV1.15B25,2013-07-26 14:41:00,
2013-07-26 09:46:00,65.7,56.8,30.06,NNE,15,3.0,14.0,73,0.00,,,0.01,564,WeatherCatV1.15B25,2013-07-26 14:46:00,
2013-07-26 09:51:00,65.9,56.6,30.07,NE,38,5.0,12.0,72,0.00,,,0.01,578,WeatherCatV1.15B25,2013-07-26 14:51:00,
2013-07-26 09:56:00,66.0,56.7,30.07,North,10,5.0,20.0,72,0.00,,,0.01,591,WeatherCatV1.15B25,2013-07-26 14:56:00,
2013-07-26 10:01:00,66.2,56.1,30.07,North,11,13.0,13.0,70,0.00,,,0.01,606,WeatherCatV1.15B25,2013-07-26 15:01:00,
2013-07-26 10:06:00,66.1,56.0,30.07,NNE,27,11.0,13.0,70,0.00,,,0.01,619,WeatherCatV1.15B25,2013-07-26 15:06:00,
2013-07-26 10:11:00,66.4,57.1,30.07,NNE,26,0.0,3.0,72,0.00,,,0.01,633,WeatherCatV1.15B25,2013-07-26 15:11:00,
2013-07-26 10:16:00,67.3,57.6,30.07,ENE,72,4.0,9.0,71,0.00,,,0.01,649,WeatherCatV1.15B25,2013-07-26 15:16:00,
2013-07-26 10:21:00,67.6,56.7,30.07,NNE,28,6.0,7.0,68,0.00,,,0.01,661,WeatherCatV1.15B25,2013-07-26 15:21:00,
2013-07-26 10:26:00,68.0,57.0,30.08,NE,45,4.0,5.0,68,0.00,,,0.01,671,WeatherCatV1.15B25,2013-07-26 15:26:00,
2013-07-26 10:31:00,68.1,56.3,30.08,NE,37,3.0,13.0,66,0.00,,,0.01,686,WeatherCatV1.15B25,2013-07-26 15:31:00,
2013-07-26 10:36:00,67.8,56.0,30.08,NW,321,2.0,17.0,66,0.00,,,0.01,698,WeatherCatV1.15B25,2013-07-26 15:36:00,
2013-07-26 10:41:00,67.9,56.5,30.08,ENE,63,3.0,10.0,67,0.00,,,0.01,710,WeatherCatV1.15B25,2013-07-26 15:41:00,
2013-07-26 10:46:00,68.3,57.3,30.08,NNW,339,3.0,12.0,68,0.00,,,0.01,724,WeatherCatV1.15B25,2013-07-26 15:46:00,
2013-07-26 10:51:00,68.5,56.7,30.09,NW,307,1.0,14.0,66,0.00,,,0.01,735,WeatherCatV1.15B25,2013-07-26 15:51:00,
2013-07-26 10:56:00,68.6,56.8,30.09,NNE,25,5.0,13.0,66,0.00,,,0.01,745,WeatherCatV1.15B25,2013-07-26 15:56:00,
2013-07-26 11:01:00,69.0,56.7,30.09,NW,321,2.0,11.0,65,0.00,,,0.01,759,WeatherCatV1.15B25,2013-07-26 16:01:00,
2013-07-26 11:06:00,68.8,55.7,30.09,ENE,59,4.0,15.0,63,0.00,,,0.01,770,WeatherCatV1.15B25,2013-07-26 16:06:00,
2013-07-26 11:11:00,68.8,56.1,30.09,NNW,340,1.0,10.0,64,0.00,,,0.01,779,WeatherCatV1.15B25,2013-07-26 16:11:00,
2013-07-26 11:16:00,69.3,56.6,30.09,North,5,5.0,11.0,64,0.00,,,0.01,789,WeatherCatV1.15B25,2013-07-26 16:16:00,
2013-07-26 11:21:00,70.0,56.4,30.09,North,355,11.0,12.0,62,0.00,,,0.01,802,WeatherCatV1.15B25,2013-07-26 16:21:00,
2013-07-26 11:26:00,70.2,55.7,30.09,NNW,344,13.0,13.0,60,0.00,,,0.01,810,WeatherCatV1.15B25,2013-07-26 16:26:00,
2013-07-26 11:31:00,69.7,55.2,30.09,North,0,2.0,14.0,60,0.00,,,0.01,821,WeatherCatV1.15B25,2013-07-26 16:31:00,
2013-07-26 11:36:00,70.1,55.1,30.09,NNW,345,5.0,12.0,59,0.00,,,0.01,828,WeatherCatV1.15B25,2013-07-26 16:36:00,
2013-07-26 11:41:00,70.3,56.2,30.09,NW,311,1.0,6.0,61,0.00,,,0.01,838,WeatherCatV1.15B25,2013-07-26 16:41:00,
2013-07-26 11:46:00,70.4,55.4,30.09,NW,317,6.0,11.0,59,0.00,,,0.01,847,WeatherCatV1.15B25,2013-07-26 16:46:00,
2013-07-26 11:51:00,70.7,55.2,30.08,WNW,299,0.0,15.0,58,0.00,,,0.01,856,WeatherCatV1.15B25,2013-07-26 16:51:00,
2013-07-26 11:56:00,71.2,55.2,30.09,NW,311,5.0,14.0,57,0.00,,,0.01,863,WeatherCatV1.15B25,2013-07-26 16:56:00,
2013-07-26 12:01:00,71.3,55.3,30.08,NW,313,1.0,13.0,57,0.00,,,0.01,875,WeatherCatV1.15B25,2013-07-26 17:01:00,
2013-07-26 12:06:00,71.5,55.5,30.09,NNW,328,13.0,18.0,57,0.00,,,0.01,881,WeatherCatV1.15B25,2013-07-26 17:06:00,
2013-07-26 12:11:00,71.4,55.4,30.09,NNW,334,6.0,12.0,57,0.00,,,0.01,886,WeatherCatV1.15B25,2013-07-26 17:11:00,
2013-07-26 12:16:00,71.9,56.3,30.08,NNE,13,10.0,11.0,58,0.00,,,0.01,895,WeatherCatV1.15B25,2013-07-26 17:16:00,
2013-07-26 12:21:00,72.3,55.7,30.08,NNE,20,12.0,13.0,56,0.00,,,0.01,902,WeatherCatV1.15B25,2013-07-26 17:21:00,
2013-07-26 12:26:00,72.5,55.4,30.08,NNW,343,7.0,12.0,55,0.00,,,0.01,907,WeatherCatV1.15B25,2013-07-26 17:26:00,
2013-07-26 12:31:00,72.7,55.1,30.08,NE,37,5.0,12.0,54,0.00,,,0.01,912,WeatherCatV1.15B25,2013-07-26 17:31:00,
2013-07-26 12:37:00,72.8,56.7,30.08,WNW,303,1.0,10.0,57,0.00,,,0.01,918,WeatherCatV1.15B25,2013-07-26 17:37:00,
2013-07-26 12:42:00,73.0,55.9,30.08,NNE,31,5.0,6.0,55,0.00,,,0.01,925,WeatherCatV1.15B25,2013-07-26 17:42:00,
2013-07-26 12:47:00,73.1,56.9,30.08,NNW,339,0.0,5.0,57,0.00,,,0.01,960,WeatherCatV1.15B25,2013-07-26 17:47:00,
2013-07-26 12:52:00,73.7,56.0,30.08,NNE,28,0.0,4.0,54,0.00,,,0.01,494,WeatherCatV1.15B25,2013-07-26 17:52:00,
2013-07-26 12:57:00,73.3,56.1,30.08,NW,321,3.0,12.0,55,0.00,,,0.01,202,WeatherCatV1.15B25,2013-07-26 17:57:00,
2013-07-26 13:02:00,73.2,55.5,30.08,North,349,5.0,11.0,54,0.00,,,0.01,969,WeatherCatV1.15B25,2013-07-26 18:02:00,
2013-07-26 13:07:00,73.3,54.6,30.08,NNE,32,9.0,14.0,52,0.00,,,0.01,923,WeatherCatV1.15B25,2013-07-26 18:07:00,
2013-07-26 13:12:00,73.0,55.4,30.08,NNW,337,2.0,10.0,54,0.00,,,0.01,898,WeatherCatV1.15B25,2013-07-26 18:12:00,
2013-07-26 13:17:00,73.7,55.5,30.08,NE,49,10.0,10.0,53,0.00,,,0.01,868,WeatherCatV1.15B25,2013-07-26 18:17:00,
2013-07-26 13:22:00,74.0,55.8,30.08,North,355,4.0,7.0,53,0.00,,,0.01,944,WeatherCatV1.15B25,2013-07-26 18:22:00,
2013-07-26 13:27:00,74.2,56.0,30.08,WNW,292,11.0,11.0,53,0.00,,,0.01,963,WeatherCatV1.15B25,2013-07-26 18:27:00,
2013-07-26 13:32:00,74.0,55.2,30.08,NNE,15,3.0,13.0,52,0.00,,,0.01,983,WeatherCatV1.15B25,2013-07-26 18:32:00,
2013-07-26 13:37:00,74.4,56.1,30.08,NW,325,6.0,11.0,53,0.00,,,0.01,954,WeatherCatV1.15B25,2013-07-26 18:37:00,
2013-07-26 13:42:00,74.3,56.0,30.08,NNE,19,3.0,10.0,53,0.00,,,0.01,951,WeatherCatV1.15B25,2013-07-26 18:42:00,
2013-07-26 13:47:00,74.5,56.7,30.08,NW,325,3.0,10.0,54,0.00,,,0.01,960,WeatherCatV1.15B25,2013-07-26 18:47:00,
2013-07-26 13:52:00,74.5,56.2,30.08,NNW,333,5.0,9.0,53,0.00,,,0.01,962,WeatherCatV1.15B25,2013-07-26 18:52:00,
2013-07-26 13:57:00,74.5,55.7,30.08,NE,36,3.0,9.0,52,0.00,,,0.01,956,WeatherCatV1.15B25,2013-07-26 18:57:00,
2013-07-26 14:02:00,74.6,56.3,30.07,NE,39,4.0,13.0,53,0.00,,,0.01,1011,WeatherCatV1.15B25,2013-07-26 19:02:00,
2013-07-26 14:07:00,74.9,56.1,30.07,NNW,342,5.0,12.0,52,0.00,,,0.01,1078,WeatherCatV1.15B25,2013-07-26 19:07:00,
2013-07-26 14:12:00,75.4,56.5,30.07,NNE,24,1.0,9.0,52,0.00,,,0.01,1179,WeatherCatV1.15B25,2013-07-26 19:12:00,
2013-07-26 14:17:00,75.3,55.4,30.06,NW,321,4.0,10.0,50,0.00,,,0.01,1035,WeatherCatV1.15B25,2013-07-26 19:17:00,
2013-07-26 14:22:00,75.1,56.3,30.06,NE,34,7.0,11.0,52,0.00,,,0.01,983,WeatherCatV1.15B25,2013-07-26 19:22:00,
2013-07-26 14:27:00,75.1,55.7,30.06,NW,306,10.0,10.0,51,0.00,,,0.01,953,WeatherCatV1.15B25,2013-07-26 19:27:00,
2013-07-26 14:32:00,75.0,56.7,30.06,ENE,69,4.0,10.0,53,0.00,,,0.01,940,WeatherCatV1.15B25,2013-07-26 19:32:00,
2013-07-26 14:37:00,75.2,56.3,30.06,NNE,18,14.0,14.0,52,0.00,,,0.01,935,WeatherCatV1.15B25,2013-07-26 19:37:00,
2013-07-26 14:42:00,74.6,55.3,30.05,North,5,6.0,15.0,51,0.00,,,0.01,926,WeatherCatV1.15B25,2013-07-26 19:42:00,
2013-07-26 14:47:00,74.9,56.1,30.05,ENE,57,10.0,13.0,52,0.00,,,0.01,919,WeatherCatV1.15B25,2013-07-26 19:47:00,
2013-07-26 14:52:00,75.4,56.5,30.05,NW,311,6.0,13.0,52,0.00,,,0.01,911,WeatherCatV1.15B25,2013-07-26 19:52:00,
2013-07-26 14:57:00,75.9,56.5,30.06,NW,309,6.0,14.0,51,0.00,,,0.01,902,WeatherCatV1.15B25,2013-07-26 19:57:00,
2013-07-26 15:02:00,75.7,56.3,30.06,North,0,10.0,11.0,51,0.00,,,0.01,896,WeatherCatV1.15B25,2013-07-26 20:02:00,
2013-07-26 15:07:00,75.4,54.3,30.06,NW,318,5.0,15.0,48,0.00,,,0.01,893,WeatherCatV1.15B25,2013-07-26 20:07:00,
2013-07-26 15:12:00,75.7,54.0,30.05,North,9,1.0,6.0,47,0.00,,,0.01,886,WeatherCatV1.15B25,2013-07-26 20:12:00,
2013-07-26 15:17:00,75.9,54.2,30.05,NNW,335,7.0,7.0,47,0.00,,,0.01,882,WeatherCatV1.15B25,2013-07-26 20:17:00,
2013-07-26 15:22:00,75.5,53.3,30.05,NNE,19,5.0,9.0,46,0.00,,,0.01,875,WeatherCatV1.15B25,2013-07-26 20:22:00,
2013-07-26 15:27:00,75.2,54.7,30.05,North,0,1.0,9.0,49,0.00,,,0.01,865,WeatherCatV1.15B25,2013-07-26 20:27:00,
2013-07-26 15:32:00,75.6,56.2,30.05,NW,320,9.0,9.0,51,0.00,,,0.01,858,WeatherCatV1.15B25,2013-07-26 20:32:00,
2013-07-26 15:37:00,75.5,55.0,30.05,NNW,344,4.0,12.0,49,0.00,,,0.01,849,WeatherCatV1.15B25,2013-07-26 20:37:00,
2013-07-26 15:42:00,75.5,54.4,30.05,WNW,291,7.0,10.0,48,0.00,,,0.01,842,WeatherCatV1.15B25,2013-07-26 20:42:00,
2013-07-26 15:47:00,75.7,54.0,30.05,NNE,26,10.0,12.0,47,0.00,,,0.01,833,WeatherCatV1.15B25,2013-07-26 20:47:00,
2013-07-26 15:52:00,75.7,55.2,30.05,NNW,329,6.0,6.0,49,0.00,,,0.01,824,WeatherCatV1.15B25,2013-07-26 20:52:00,
2013-07-26 15:57:00,76.6,54.8,30.05,North,355,6.0,9.0,47,0.00,,,0.01,816,WeatherCatV1.15B25,2013-07-26 20:57:00,
2013-07-26 16:02:00,76.6,54.8,30.05,NNW,338,2.0,9.0,47,0.00,,,0.01,807,WeatherCatV1.15B25,2013-07-26 21:02:00,
2013-07-26 16:07:00,76.5,55.3,30.05,NE,45,3.0,4.0,48,0.00,,,0.01,796,WeatherCatV1.15B25,2013-07-26 21:07:00,
2013-07-26 16:12:00,76.3,55.7,30.05,NNE,28,2.0,9.0,49,0.00,,,0.01,782,WeatherCatV1.15B25,2013-07-26 21:12:00,
2013-07-26 16:17:00,76.1,55.0,30.05,North,10,1.0,13.0,48,0.00,,,0.01,773,WeatherCatV1.15B25,2013-07-26 21:17:00,
2013-07-26 16:22:00,76.0,53.1,30.05,North,355,6.0,14.0,45,0.00,,,0.01,765,WeatherCatV1.15B25,2013-07-26 21:22:00,
2013-07-26 16:27:00,75.7,54.0,30.05,NNW,341,2.0,10.0,47,0.00,,,0.01,751,WeatherCatV1.15B25,2013-07-26 21:27:00,
2013-07-26 16:32:00,75.5,53.3,30.05,NE,34,7.0,9.0,46,0.00,,,0.01,740,WeatherCatV1.15B25,2013-07-26 21:32:00,
2013-07-26 16:37:00,76.0,53.1,30.05,NNW,329,6.0,10.0,45,0.00,,,0.01,728,WeatherCatV1.15B25,2013-07-26 21:37:00,
2013-07-26 16:42:00,75.5,51.4,30.05,North,11,7.0,9.0,43,0.00,,,0.01,715,WeatherCatV1.15B25,2013-07-26 21:42:00,
2013-07-26 16:47:00,75.2,51.1,30.05,NNW,341,3.0,7.0,43,0.00,,,0.01,703,WeatherCatV1.15B25,2013-07-26 21:47:00,
2013-07-26 16:52:00,74.9,51.5,30.05,NW,325,10.0,11.0,44,0.00,,,0.01,691,WeatherCatV1.15B25,2013-07-26 21:52:00,
2013-07-26 16:57:00,75.2,51.8,30.05,North,349,2.0,12.0,44,0.00,,,0.01,677,WeatherCatV1.15B25,2013-07-26 21:57:00,
2013-07-26 17:02:00,75.4,52.0,30.05,North,10,1.0,3.0,44,0.00,,,0.01,663,WeatherCatV1.15B25,2013-07-26 22:02:00,
2013-07-26 17:07:00,75.5,53.3,30.05,NNW,327,2.0,9.0,46,0.00,,,0.01,652,WeatherCatV1.15B25,2013-07-26 22:07:00,
2013-07-26 17:12:00,75.5,53.3,30.05,NNW,342,4.0,10.0,46,0.00,,,0.01,636,WeatherCatV1.15B25,2013-07-26 22:12:00,
2013-07-26 17:17:00,75.7,52.8,30.05,North,9,1.0,11.0,45,0.00,,,0.01,621,WeatherCatV1.15B25,2013-07-26 22:17:00,
2013-07-26 17:22:00,75.5,53.3,30.05,NNE,18,3.0,10.0,46,0.00,,,0.01,606,WeatherCatV1.15B25,2013-07-26 22:22:00,
2013-07-26 17:27:00,75.2,52.4,30.05,NNW,340,6.0,10.0,45,0.00,,,0.01,592,WeatherCatV1.15B25,2013-07-26 22:27:00,
2013-07-26 17:32:00,75.3,51.9,30.05,NNW,333,1.0,9.0,44,0.00,,,0.01,584,WeatherCatV1.15B25,2013-07-26 22:32:00,
2013-07-26 17:37:00,75.5,52.7,30.05,NW,321,3.0,3.0,45,0.00,,,0.01,568,WeatherCatV1.15B25,2013-07-26 22:37:00,
2013-07-26 17:42:00,75.5,52.0,30.05,NE,37,1.0,10.0,44,0.00,,,0.01,550,WeatherCatV1.15B25,2013-07-26 22:42:00,
2013-07-26 17:47:00,75.5,52.0,30.05,NNW,341,5.0,12.0,44,0.00,,,0.01,538,WeatherCatV1.15B25,2013-07-26 22:47:00,
2013-07-26 17:52:00,75.2,51.8,30.05,NNE,32,2.0,7.0,44,0.00,,,0.01,522,WeatherCatV1.15B25,2013-07-26 22:52:00,
2013-07-26 17:57:00,75.4,52.0,30.05,North,0,3.0,12.0,44,0.00,,,0.01,504,WeatherCatV1.15B25,2013-07-26 22:57:00,
2013-07-26 18:02:00,75.5,52.7,30.05,NNW,345,4.0,5.0,45,0.00,,,0.01,489,WeatherCatV1.15B25,2013-07-26 23:02:00,
2013-07-26 18:07:00,75.9,52.4,30.05,North,355,0.0,4.0,44,0.00,,,0.01,475,WeatherCatV1.15B25,2013-07-26 23:07:00,
2013-07-26 18:12:00,75.8,51.7,30.05,NNW,328,5.0,5.0,43,0.00,,,0.01,457,WeatherCatV1.15B25,2013-07-26 23:12:00,
2013-07-26 18:17:00,75.5,52.0,30.05,NNW,345,0.0,8.0,44,0.00,,,0.01,441,WeatherCatV1.15B25,2013-07-26 23:17:00,
2013-07-26 18:22:00,75.4,52.0,30.05,NNW,334,5.0,7.0,44,0.00,,,0.01,425,WeatherCatV1.15B25,2013-07-26 23:22:00,
2013-07-26 18:27:00,75.2,52.4,30.05,NNE,30,2.0,7.0,45,0.00,,,0.01,406,WeatherCatV1.15B25,2013-07-26 23:27:00,
2013-07-26 18:32:00,75.2,51.8,30.05,NNW,345,4.0,6.0,44,0.00,,,0.01,390,WeatherCatV1.15B25,2013-07-26 23:32:00,
2013-07-26 18:37:00,74.9,52.7,30.04,NNW,346,4.0,8.0,46,0.00,,,0.01,376,WeatherCatV1.15B25,2013-07-26 23:37:00,
2013-07-26 18:42:00,74.8,53.2,30.04,North,355,0.0,2.0,47,0.00,,,0.01,355,WeatherCatV1.15B25,2013-07-26 23:42:00,
2013-07-26 18:47:00,74.2,52.1,30.04,NNE,15,0.0,5.0,46,0.00,,,0.01,341,WeatherCatV1.15B25,2013-07-26 23:47:00,
2013-07-26 18:52:00,74.1,53.1,30.04,NNE,14,0.0,5.0,48,0.00,,,0.01,325,WeatherCatV1.15B25,2013-07-26 23:52:00,
2013-07-26 18:57:00,74.3,52.7,30.04,NE,51,1.0,6.0,47,0.00,,,0.01,304,WeatherCatV1.15B25,2013-07-26 23:57:00,
2013-07-26 19:02:00,74.2,52.7,30.04,NE,40,3.0,4.0,47,0.00,,,0.01,290,WeatherCatV1.15B25,2013-07-27 00:02:00,
2013-07-26 19:07:00,74.1,52.6,30.04,NW,317,3.0,10.0,47,0.00,,,0.01,276,WeatherCatV1.15B25,2013-07-27 00:07:00,
2013-07-26 19:12:00,73.8,52.3,30.04,NE,38,1.0,10.0,47,0.00,,,0.01,257,WeatherCatV1.15B25,2013-07-27 00:12:00,
2013-07-26 19:17:00,73.6,52.1,30.03,North,5,0.0,3.0,47,0.00,,,0.01,239,WeatherCatV1.15B25,2013-07-27 00:17:00,
2013-07-26 19:22:00,73.7,52.2,30.04,NNE,18,4.0,6.0,47,0.00,,,0.01,223,WeatherCatV1.15B25,2013-07-27 00:22:00,
2013-07-26 19:27:00,73.3,52.4,30.04,North,0,0.0,1.0,48,0.00,,,0.01,200,WeatherCatV1.15B25,2013-07-27 00:27:00,
2013-07-26 19:32:00,72.9,52.0,30.04,NE,50,3.0,6.0,48,0.00,,,0.01,183,WeatherCatV1.15B25,2013-07-27 00:32:00,
2013-07-26 19:37:00,72.6,51.8,30.04,NE,36,0.0,3.0,48,0.00,,,0.01,165,WeatherCatV1.15B25,2013-07-27 00:37:00,
2013-07-26 19:42:00,72.5,52.2,30.04,NNE,33,0.0,2.0,49,0.00,,,0.01,144,WeatherCatV1.15B25,2013-07-27 00:42:00,
2013-07-26 19:47:00,72.3,51.5,30.04,NE,44,3.0,4.0,48,0.00,,,0.01,127,WeatherCatV1.15B25,2013-07-27 00:47:00,
2013-07-26 19:52:00,72.0,51.8,30.04,NE,36,0.0,4.0,49,0.00,,,0.01,111,WeatherCatV1.15B25,2013-07-27 00:52:00,
2013-07-26 19:57:00,71.7,52.1,30.04,NNE,25,1.0,4.0,50,0.00,,,0.01,91,WeatherCatV1.15B25,2013-07-27 00:57:00,
2013-07-26 20:02:00,71.5,52.4,30.04,NNE,33,0.0,2.0,51,0.00,,,0.01,77,WeatherCatV1.15B25,2013-07-27 01:02:00,
2013-07-26 20:07:00,71.3,52.2,30.04,NNE,33,0.0,5.0,51,0.00,,,0.01,65,WeatherCatV1.15B25,2013-07-27 01:07:00,
2013-07-26 20:12:00,71.0,51.9,30.04,NNE,18,0.0,6.0,51,0.00,,,0.01,51,WeatherCatV1.15B25,2013-07-27 01:12:00,
2013-07-26 20:17:00,70.7,53.2,30.04,NNE,18,2.0,2.0,54,0.00,,,0.01,28,WeatherCatV1.15B25,2013-07-27 01:17:00,
2013-07-26 20:22:00,70.4,53.4,30.04,NNE,18,0.0,3.0,55,0.00,,,0.01,23,WeatherCatV1.15B25,2013-07-27 01:22:00,
2013-07-26 20:27:00,70.1,53.2,30.04,NNE,18,2.0,2.0,55,0.00,,,0.01,21,WeatherCatV1.15B25,2013-07-27 01:27:00,
2013-07-26 20:32:00,69.8,53.4,30.04,NNE,19,0.0,3.0,56,0.00,,,0.01,18,WeatherCatV1.15B25,2013-07-27 01:32:00,
2013-07-26 20:37:00,69.5,53.6,30.04,NNE,19,0.0,2.0,57,0.00,,,0.01,16,WeatherCatV1.15B25,2013-07-27 01:37:00,
2013-07-26 20:42:00,69.3,53.9,30.04,NNE,19,0.0,1.0,58,0.00,,,0.01,12,WeatherCatV1.15B25,2013-07-27 01:42:00,
2013-07-26 20:47:00,68.9,53.5,30.04,NNE,18,0.0,2.0,58,0.00,,,0.01,9,WeatherCatV1.15B25,2013-07-27 01:47:00,
2013-07-26 20:52:00,68.6,53.2,30.05,NNE,19,0.0,1.0,58,0.00,,,0.01,7,WeatherCatV1.15B25,2013-07-27 01:52:00,
2013-07-26 20:57:00,68.4,53.5,30.05,NNE,18,0.0,0.0,59,0.00,,,0.01,5,WeatherCatV1.15B25,2013-07-27 01:57:00,
2013-07-26 21:02:00,68.1,53.2,30.05,NNE,19,2.0,2.0,59,0.00,,,0.01,0,WeatherCatV1.15B25,2013-07-27 02:02:00,
2013-07-26 21:07:00,67.9,53.0,30.05,NNE,19,0.0,2.0,59,0.00,,,0.01,0,WeatherCatV1.15B25,2013-07-27 02:07:00,
2013-07-26 21:12:00,67.7,53.3,30.05,NNE,19,0.0,0.0,60,0.00,,,0.01,0,WeatherCatV1.15B25,2013-07-27 02:12:00,
2013-07-26 21:17:00,67.4,53.0,30.05,NNE,19,1.0,2.0,60,0.00,,,0.01,0,WeatherCatV1.15B25,2013-07-27 02:17:00,
2013-07-26 21:22:00,67.2,53.3,30.05,NNE,20,0.0,0.0,61,0.00,,,0.01,0,WeatherCatV1.15B25,2013-07-27 02:22:00,
2013-07-26 21:27:00,67.1,53.6,30.05,NNE,19,2.0,2.0,62,0.00,,,0.01,0,WeatherCatV1.15B25,2013-07-27 02:27:00,
2013-07-26 21:32:00,66.8,53.4,30.05,NNE,19,0.0,4.0,62,0.00,,,0.01,0,WeatherCatV1.15B25,2013-07-27 02:32:00,
2013-07-26 21:37:00,66.7,53.7,30.06,NNE,20,0.0,0.0,63,0.00,,,0.01,0,WeatherCatV1.15B25,2013-07-27 02:37:00,
2013-07-26 21:42:00,66.5,53.5,30.06,NNE,19,0.0,2.0,63,0.00,,,0.01,0,WeatherCatV1.15B25,2013-07-27 02:42:00,
2013-07-26 21:47:00,66.4,53.8,30.06,NNE,20,0.0,0.0,64,0.00,,,0.01,0,WeatherCatV1.15B25,2013-07-27 02:47:00,
2013-07-26 21:52:00,66.3,53.7,30.06,NNE,20,1.0,3.0,64,0.00,,,0.01,0,WeatherCatV1.15B25,2013-07-27 02:52:00,
2013-07-26 21:57:00,66.1,54.0,30.06,NNE,20,0.0,1.0,65,0.00,,,0.01,0,WeatherCatV1.15B25,2013-07-27 02:57:00,
2013-07-26 22:02:00,65.9,54.2,30.06,NNE,20,0.0,1.0,66,0.00,,,0.01,0,WeatherCatV1.15B25,2013-07-27 03:02:00,
2013-07-26 22:07:00,65.6,53.9,30.06,NNE,20,0.0,0.0,66,0.00,,,0.01,0,WeatherCatV1.15B25,2013-07-27 03:07:00,
2013-07-26 22:12:00,65.4,54.1,30.06,NNE,19,0.0,0.0,67,0.00,,,0.01,0,WeatherCatV1.15B25,2013-07-27 03:12:00,
2013-07-26 22:17:00,65.1,53.9,30.06,NNE,21,0.0,0.0,67,0.00,,,0.01,0,WeatherCatV1.15B25,2013-07-27 03:17:00,
2013-07-26 22:22:00,64.9,54.1,30.06,NNE,20,0.0,0.0,68,0.00,,,0.01,0,WeatherCatV1.15B25,2013-07-27 03:22:00,
2013-07-26 22:27:00,64.8,54.0,30.06,NNE,20,0.0,0.0,68,0.00,,,0.01,0,WeatherCatV1.15B25,2013-07-27 03:27:00,
2013-07-26 22:32:00,64.7,53.9,30.06,NNE,19,0.0,0.0,68,0.00,,,0.01,0,WeatherCatV1.15B25,2013-07-27 03:32:00,
2013-07-26 22:37:00,64.5,54.1,30.06,NNE,20,0.0,0.0,69,0.00,,,0.01,0,WeatherCatV1.15B25,2013-07-27 03:37:00,
2013-07-26 22:42:00,64.4,54.0,30.06,NNE,20,0.0,0.0,69,0.00,,,0.01,0,WeatherCatV1.15B25,2013-07-27 03:42:00,
2013-07-26 22:47:00,64.3,53.9,30.06,NNE,19,0.0,0.0,69,0.00,,,0.01,0,WeatherCatV1.15B25,2013-07-27 03:47:00,
2013-07-26 22:52:00,64.1,53.7,30.06,NNE,21,0.0,0.0,69,0.00,,,0.01,0,WeatherCatV1.15B25,2013-07-27 03:52:00,
2013-07-26 22:57:00,64.0,53.6,30.07,NNE,21,0.0,0.0,69,0.00,,,0.01,0,WeatherCatV1.15B25,2013-07-27 03:57:00,
2013-07-26 23:01:00,63.9,53.9,30.07,NNE,21,0.0,0.0,70,0.00,,,0.01,0,WeatherCatV1.15B25,2013-07-27 04:01:00,
2013-07-26 23:06:00,63.8,53.8,30.07,NNE,21,0.0,1.0,70,0.00,,,0.01,0,WeatherCatV1.15B25,2013-07-27 04:06:00,
2013-07-26 23:11:00,63.7,53.7,30.07,NNE,21,0.0,2.0,70,0.00,,,0.01,0,WeatherCatV1.15B25,2013-07-27 04:11:00,
2013-07-26 23:16:00,63.6,53.6,30.07,NNE,21,0.0,2.0,70,0.00,,,0.01,0,WeatherCatV1.15B25,2013-07-27 04:16:00,
2013-07-26 23:21:00,63.4,53.4,30.07,NNE,21,0.0,1.0,70,0.00,,,0.01,0,WeatherCatV1.15B25,2013-07-27 04:21:00,
2013-07-26 23:26:00,63.3,53.3,30.07,NNE,21,0.0,0.0,70,0.00,,,0.01,0,WeatherCatV1.15B25,2013-07-27 04:26:00,
2013-07-26 23:31:00,63.1,53.5,30.07,NNE,21,0.0,0.0,71,0.00,,,0.01,0,WeatherCatV1.15B25,2013-07-27 04:31:00,
2013-07-26 23:36:00,63.0,53.4,30.07,NNE,21,0.0,0.0,71,0.00,,,0.01,0,WeatherCatV1.15B25,2013-07-27 04:36:00,
2013-07-26 23:41:00,62.9,53.7,30.07,NNE,21,0.0,1.0,72,0.00,,,0.01,0,WeatherCatV1.15B25,2013-07-27 04:41:00,
2013-07-26 23:46:00,62.7,53.5,30.07,NNE,21,0.0,0.0,72,0.00,,,0.01,0,WeatherCatV1.15B25,2013-07-27 04:46:00,
2013-07-26 23:51:00,62.5,53.3,30.07,NNE,21,0.0,0.0,72,0.00,,,0.01,0,WeatherCatV1.15B25,2013-07-27 04:51:00,
2013-07-26 23:56:00,62.3,53.5,30.07,NNE,21,0.0,0.0,73,0.00,,,0.01,0,WeatherCatV1.15B25,2013-07-27 04:56:00,